Pagrindinis puslapis
METAR-TAF:

METAR-TAF

Oro uostai :

Malacca, Malaizija

platuma: 02-16N, ilguma: 102-15E, Aukštis: 11 m

Dabartinis oras

Ataskaita buvo paskelbta 1 valandą ir 8 minutes, ne 19:00 UTC
Vėjas 3 kt nuo kintamojo kryptimis
Temperatūra 25°C
Drėgmė 89%
Slėgis 1009 hPa
Matomumas: 6000 m
Mažai debesys ne aukštis 2800 ft
Išsisklaidę debesys ne aukštis 14000 ft
Su prošvaistėmis ne aukštis 28000 ft

METAR: WMKM 201900Z VRB03KT 6000 FEW028 SCT140 BKN280 25/23 Q1009

Laikas: 04:08 (20:08 UTC)

Prognozė

Ataskaita buvo paskelbta 3 valandos ir 8 minutes, ne 17:00 UTC
Prognozė galioja nuo 20 metu 18 UTC su 21 metu 18 UTC
Vėjas 5 kt iš Pietų/Pietryčių
Matomumas: 8000 m
Mažai debesys ne aukštis 2800 ft
Tapsmas
nuo 20 metu 22 UTC su 21 metu 00 UTC
Matomumas: 4000 m
Mažai debesys ne aukštis 1800 ft
migla
Tapsmas
nuo 21 metu 12 UTC su 21 metu 13 UTC
Matomumas: 7000 m
Mažai debesys ne aukštis 3000 ft

TAF: WMKM 201700Z 2018/2118 15005KT 8000 FEW028 BECMG 2022/2100 4000 HZ FEW018 BECMG 2112/2113 7000 FEW030

Orai ataskaitas ir orų prognozės (METAR, TAF).

turimą stotys yra geltonos ir raudonos taškus žemėlapyje.

Perkelti pele per norėdami pamatyti stoties vardą.

Tada spustelėkite, norėdami matyti oro stebėjimo ir prognozės.

Norėdami pakeisti žemėlapį: spustelėkite ant žalios mygtukų su juodo kryžiaus žemyn,; žalią mygtuką su brūkšneliu, jei norite nutolinti; arba žalių rodyklių gretimoms žemėlapius.


METAR-TAF: